Florencia — IBPD — position and weather

sailwx.info

Track history (hours):
 
Tides and Currents Weather Stations Pressure Air Temp Water Temp Dewpoint Dewpoint Depression Visibility Wind Speed Wind Dir Waves Ship Positions

Florencia

Last reported at 2014-Sep-20 04:33 UTC. Time now 2014-Sep-20 05:52 UTC.
Position N 38°51' E 013°15'.

Length 186 m; draft 5.8 m.

Type: Ship. MMSI: 247105900.

Date/timePositionNaut miles runAvg speedWind from/ knotsBaromVisibWave heightAir tempDewpointWater temp
2014-Sep-20 04:33N 38°51' E 013°15'2221.2
2014-Sep-20 03:31N 39°12' E 013°05'8 0.3
2014-Sep-19 02:33N 39°10' E 013°16'2222.2
2014-Sep-19 01:33N 38°49' E 013°26'5216.9
2014-Sep-18 22:31N 37°59' E 013°42'0 0.0
2014-Sep-18 21:31N 37°59' E 013°42'0 0.0
2014-Sep-18 20:31N 37°59' E 013°42'0 0.0
2014-Sep-18 19:31N 37°59' E 013°42'0 0.0
2014-Sep-18 18:31N 37°59' E 013°42'0 0.0
2014-Sep-18 17:31N 37°59' E 013°42'0 0.0
2014-Sep-18 16:31N 37°59' E 013°42'0 0.0
2014-Sep-18 15:31N 37°59' E 013°42'0 0.0
2014-Sep-18 14:31N 37°59' E 013°42'0 0.0
2014-Sep-18 13:31N 37°59' E 013°42'0 0.0
2014-Sep-18 12:31N 37°59' E 013°42'0 0.0
2014-Sep-18 11:31N 37°59' E 013°42'0 0.0
2014-Sep-18 10:31N 37°59' E 013°42'0 0.0
2014-Sep-18 09:31N 37°59' E 013°42'0 0.0
2014-Sep-18 08:33N 37°59' E 013°42'6 6.2
2014-Sep-18 07:33N 38°05' E 013°45'2121.2
2014-Sep-18 06:33N 38°25' E 013°38'2221.6
2014-Sep-18 05:33N 38°45' E 013°27'16 0.6
2014-Sep-17 03:04N 39°01' E 013°20'1121.2
2014-Sep-17 02:33N 38°50' E 013°25'2121.4
2014-Sep-17 01:33N 38°31' E 013°35'2121.2
2014-Sep-17 00:33N 38°11' E 013°43'1111.3
2014-Sep-16 23:33N 37°59' E 013°42'0 0.0
2014-Sep-16 22:33N 37°59' E 013°42'0 0.0
2014-Sep-16 21:33N 37°59' E 013°42'0 0.0
2014-Sep-16 20:30N 37°59' E 013°42'0 0.0
2014-Sep-16 19:30N 37°59' E 013°42'0 0.0
2014-Sep-16 18:33N 37°59' E 013°42'0 0.0
2014-Sep-16 17:30N 37°59' E 013°42'0 0.0
2014-Sep-16 16:30N 37°59' E 013°42'0 0.0
2014-Sep-16 15:33N 37°59' E 013°42'0 0.0
2014-Sep-16 14:12N 37°59' E 013°42'0 0.0
2014-Sep-16 13:24N 37°59' E 013°42'0 0.0
2014-Sep-16 12:33N 37°59' E 013°42'0 0.0
2014-Sep-16 11:30N 37°59' E 013°42'0 0.0
2014-Sep-16 10:30N 37°59' E 013°42'0 0.0
2014-Sep-16 09:30N 37°59' E 013°42'0 0.0
2014-Sep-16 08:33N 37°59' E 013°42'0 0.0
2014-Sep-16 07:33N 37°59' E 013°42'2 2.5
2014-Sep-16 06:33N 38°01' E 013°44'2121.3
2014-Sep-16 05:33N 38°23' E 013°41'2121.4
2014-Sep-16 04:33N 38°42' E 013°31'2121.3
2014-Sep-16 03:33N 39°02' E 013°20'16 0.5
2014-Sep-14 20:14N 38°47' E 013°18'1521.3
2014-Sep-14 19:34N 38°33' E 013°22'2121.1
2014-Sep-14 18:34N 38°12' E 013°25'4 4.4
2014-Sep-14 17:32N 38°08' E 013°22'0 0.0
2014-Sep-14 16:32N 38°08' E 013°22'0 0.0
2014-Sep-14 15:32N 38°08' E 013°22'0 0.0
2014-Sep-14 14:32N 38°08' E 013°22'0 0.0
2014-Sep-14 13:32N 38°08' E 013°22'0 0.0
2014-Sep-14 12:32N 38°08' E 013°22'0 0.0
2014-Sep-14 11:32N 38°08' E 013°22'0 0.0
2014-Sep-14 10:32N 38°08' E 013°22'0 0.0
2014-Sep-14 09:32N 38°08' E 013°22'1 1.5
2014-Sep-14 08:33N 38°08' E 013°24'1616.3
2014-Sep-14 07:33N 38°18' E 013°07'2121.3
2014-Sep-14 06:33N 38°17' E 012°40'4 0.2
2014-Sep-13 11:32N 38°14' E 012°35'2121.3
2014-Sep-13 10:34N 38°17' E 013°01'1919.0
2014-Sep-13 09:33N 38°12' E 013°25'5 4.5
2014-Sep-13 08:32N 38°08' E 013°22'0 0.0
2014-Sep-13 07:32N 38°08' E 013°22'0 0.1
2014-Sep-13 06:33N 38°08' E 013°22'1313.5
2014-Sep-13 05:33N 38°21' E 013°23'2121.1
2014-Sep-13 04:33N 38°42' E 013°21'4821.7
2014-Sep-13 02:21N 39°27' E 012°59'2721.9
2014-Sep-13 01:08N 39°52' E 012°46'1321.7
2014-Sep-13 00:33N 40°04' E 012°41'75 3.4
2014-Sep-12 02:29N 38°56' E 013°23'2021.6
2014-Sep-12 01:33N 38°38' E 013°33'2221.6
2014-Sep-12 00:33N 38°18' E 013°42'1817.3
2014-Sep-11 23:30N 37°59' E 013°42'0 0.0
2014-Sep-11 22:33N 37°59' E 013°42'0 0.0
2014-Sep-11 21:33N 37°59' E 013°42'0 0.0
2014-Sep-11 20:33N 37°59' E 013°42'0 0.0
2014-Sep-11 19:33N 37°59' E 013°42'0 0.0
2014-Sep-11 18:33N 37°59' E 013°42'0 0.0
2014-Sep-11 17:33N 37°59' E 013°42'0 0.0
2014-Sep-11 16:27N 37°59' E 013°42'0 0.0
2014-Sep-11 15:33N 37°59' E 013°42'0 0.0
2014-Sep-11 14:33N 37°59' E 013°42'0 0.0
2014-Sep-11 13:30N 37°59' E 013°42'0 0.0
2014-Sep-11 12:33N 37°59' E 013°42'0 0.0
2014-Sep-11 11:33N 37°59' E 013°42'0 0.0
2014-Sep-11 10:33N 37°59' E 013°42'  
Track history (hours):
 
Tides and Currents Weather Stations Pressure Air Temp Water Temp Dewpoint Dewpoint Depression Visibility Wind Speed Wind Dir Waves Ship Positions

Florencia

Last reported at 2014-Sep-20 04:33 UTC. Time now 2014-Sep-20 05:52 UTC.
Position N 38°51' E 013°15'.

Length 186 m; draft 5.8 m.

Type: Ship. MMSI: 247105900.

Date/timePositionNaut miles runAvg speedWind from/ knotsBaromVisibWave heightAir tempDewpointWater temp
2014-Sep-20 04:33N 38°51' E 013°15'2221.2
2014-Sep-20 03:31N 39°12' E 013°05'8 0.3
2014-Sep-19 02:33N 39°10' E 013°16'2222.2
2014-Sep-19 01:33N 38°49' E 013°26'5216.9
2014-Sep-18 22:31N 37°59' E 013°42'0 0.0
2014-Sep-18 21:31N 37°59' E 013°42'0 0.0
2014-Sep-18 20:31N 37°59' E 013°42'0 0.0
2014-Sep-18 19:31N 37°59' E 013°42'0 0.0
2014-Sep-18 18:31N 37°59' E 013°42'0 0.0
2014-Sep-18 17:31N 37°59' E 013°42'0 0.0
2014-Sep-18 16:31N 37°59' E 013°42'0 0.0
2014-Sep-18 15:31N 37°59' E 013°42'0 0.0
2014-Sep-18 14:31N 37°59' E 013°42'0 0.0
2014-Sep-18 13:31N 37°59' E 013°42'0 0.0
2014-Sep-18 12:31N 37°59' E 013°42'0 0.0
2014-Sep-18 11:31N 37°59' E 013°42'0 0.0
2014-Sep-18 10:31N 37°59' E 013°42'0 0.0
2014-Sep-18 09:31N 37°59' E 013°42'0 0.0
2014-Sep-18 08:33N 37°59' E 013°42'6 6.2
2014-Sep-18 07:33N 38°05' E 013°45'2121.2
2014-Sep-18 06:33N 38°25' E 013°38'2221.6
2014-Sep-18 05:33N 38°45' E 013°27'16 0.6
2014-Sep-17 03:04N 39°01' E 013°20'1121.2
2014-Sep-17 02:33N 38°50' E 013°25'2121.4
2014-Sep-17 01:33N 38°31' E 013°35'2121.2
2014-Sep-17 00:33N 38°11' E 013°43'1111.3
2014-Sep-16 23:33N 37°59' E 013°42'0 0.0
2014-Sep-16 22:33N 37°59' E 013°42'0 0.0
2014-Sep-16 21:33N 37°59' E 013°42'0 0.0
2014-Sep-16 20:30N 37°59' E 013°42'0 0.0
2014-Sep-16 19:30N 37°59' E 013°42'0 0.0
2014-Sep-16 18:33N 37°59' E 013°42'0 0.0
2014-Sep-16 17:30N 37°59' E 013°42'0 0.0
2014-Sep-16 16:30N 37°59' E 013°42'0 0.0
2014-Sep-16 15:33N 37°59' E 013°42'0 0.0
2014-Sep-16 14:12N 37°59' E 013°42'0 0.0
2014-Sep-16 13:24N 37°59' E 013°42'0 0.0
2014-Sep-16 12:33N 37°59' E 013°42'0 0.0
2014-Sep-16 11:30N 37°59' E 013°42'0 0.0
2014-Sep-16 10:30N 37°59' E 013°42'0 0.0
2014-Sep-16 09:30N 37°59' E 013°42'0 0.0
2014-Sep-16 08:33N 37°59' E 013°42'0 0.0
2014-Sep-16 07:33N 37°59' E 013°42'2 2.5
2014-Sep-16 06:33N 38°01' E 013°44'2121.3
2014-Sep-16 05:33N 38°23' E 013°41'2121.4
2014-Sep-16 04:33N 38°42' E 013°31'2121.3
2014-Sep-16 03:33N 39°02' E 013°20'16 0.5
2014-Sep-14 20:14N 38°47' E 013°18'1521.3
2014-Sep-14 19:34N 38°33' E 013°22'2121.1
2014-Sep-14 18:34N 38°12' E 013°25'4 4.4
2014-Sep-14 17:32N 38°08' E 013°22'0 0.0
2014-Sep-14 16:32N 38°08' E 013°22'0 0.0
2014-Sep-14 15:32N 38°08' E 013°22'0 0.0
2014-Sep-14 14:32N 38°08' E 013°22'0 0.0
2014-Sep-14 13:32N 38°08' E 013°22'0 0.0
2014-Sep-14 12:32N 38°08' E 013°22'0 0.0
2014-Sep-14 11:32N 38°08' E 013°22'0 0.0
2014-Sep-14 10:32N 38°08' E 013°22'0 0.0
2014-Sep-14 09:32N 38°08' E 013°22'1 1.5
2014-Sep-14 08:33N 38°08' E 013°24'1616.3
2014-Sep-14 07:33N 38°18' E 013°07'2121.3
2014-Sep-14 06:33N 38°17' E 012°40'4 0.2
2014-Sep-13 11:32N 38°14' E 012°35'2121.3
2014-Sep-13 10:34N 38°17' E 013°01'1919.0
2014-Sep-13 09:33N 38°12' E 013°25'5 4.5
2014-Sep-13 08:32N 38°08' E 013°22'0 0.0
2014-Sep-13 07:32N 38°08' E 013°22'0 0.1
2014-Sep-13 06:33N 38°08' E 013°22'1313.5
2014-Sep-13 05:33N 38°21' E 013°23'2121.1
2014-Sep-13 04:33N 38°42' E 013°21'4821.7
2014-Sep-13 02:21N 39°27' E 012°59'2721.9
2014-Sep-13 01:08N 39°52' E 012°46'1321.7
2014-Sep-13 00:33N 40°04' E 012°41'75 3.4
2014-Sep-12 02:29N 38°56' E 013°23'2021.6
2014-Sep-12 01:33N 38°38' E 013°33'2221.6
2014-Sep-12 00:33N 38°18' E 013°42'1817.3
2014-Sep-11 23:30N 37°59' E 013°42'0 0.0
2014-Sep-11 22:33N 37°59' E 013°42'0 0.0
2014-Sep-11 21:33N 37°59' E 013°42'0 0.0
2014-Sep-11 20:33N 37°59' E 013°42'0 0.0
2014-Sep-11 19:33N 37°59' E 013°42'0 0.0
2014-Sep-11 18:33N 37°59' E 013°42'0 0.0
2014-Sep-11 17:33N 37°59' E 013°42'0 0.0
2014-Sep-11 16:27N 37°59' E 013°42'0 0.0
2014-Sep-11 15:33N 37°59' E 013°42'0 0.0
2014-Sep-11 14:33N 37°59' E 013°42'0 0.0
2014-Sep-11 13:30N 37°59' E 013°42'0 0.0
2014-Sep-11 12:33N 37°59' E 013°42'0 0.0
2014-Sep-11 11:33N 37°59' E 013°42'0 0.0
2014-Sep-11 10:33N 37°59' E 013°42'  

Dump ship's entire track history